Free Maverick — A8GH3 — position and weather

sailwx.info

Track history (hours):
 
Tides and Currents Weather Stations Pressure Air Temp Water Temp Dewpoint Dewpoint Depression Visibility Wind Speed Wind Dir Waves Ship Positions

Free Maverick

Last reported at 2014-Apr-24 17:24 UTC. Time now 2014-Aug-01 07:51 UTC.
Position N 35°58' W 005°38'.
Warning: this ship's position is months out of date.

Length 153 m; draft 9.3 m.

Type: Cargo ship. MMSI: 636013999.

Date/timePositionNaut miles runAvg speedWind from/ knotsBaromVisibWave heightAir tempDewpointWater temp
2014-Apr-24 17:24N 35°58' W 005°38'8 9.3
2014-Apr-24 16:33N 35°60' W 005°29'8 7.6
2014-Apr-24 15:33N 36°06' W 005°23'1 0.8
2014-Apr-24 14:33N 36°06' W 005°24'0 0.1
2014-Apr-24 13:33N 36°06' W 005°24'0 0.0
2014-Apr-24 12:33N 36°06' W 005°24'0 0.0
2014-Apr-24 11:33N 36°06' W 005°24'0 0.1
2014-Apr-24 10:17N 36°06' W 005°24'0 0.0
2014-Apr-24 09:33N 36°06' W 005°24'0 0.0
2014-Apr-24 08:33N 36°06' W 005°24'0 0.0
2014-Apr-24 07:33N 36°06' W 005°24'0 0.1
2014-Apr-24 06:33N 36°06' W 005°25'0 0.1
2014-Apr-24 05:33N 36°06' W 005°25'0 0.1
2014-Apr-24 04:33N 36°06' W 005°24'0 0.0
2014-Apr-24 03:33N 36°06' W 005°24'0 0.1
2014-Apr-24 02:33N 36°06' W 005°24'2 2.0
2014-Apr-24 01:33N 36°05' W 005°22'5 5.5
2014-Apr-24 00:33N 36°04' W 005°16'4 3.8
2014-Apr-23 23:33N 36°05' W 005°20'6 5.7
2014-Apr-23 22:33N 36°05' W 005°13'8 7.9
2014-Apr-23 21:33N 36°06' W 005°03'  
2014-Apr-20 17:34N 36°44' E 012°54'1312.8
2014-Apr-20 16:33N 36°39' E 013°08'1212.3
2014-Apr-20 15:33N 36°33' E 013°22'1312.4
2014-Apr-20 14:33N 36°27' E 013°36'1212.1
2014-Apr-20 13:33N 36°25' E 013°50'1312.7
2014-Apr-20 12:33N 36°25' E 014°06'1312.7
2014-Apr-20 11:34N 36°24' E 014°22'1312.6
2014-Apr-20 10:33N 36°24' E 014°37'  
2014-Apr-17 23:32N 39°50' E 025°46'  
2014-Apr-14 21:29N 40°27' E 027°09'0 0.0
2014-Apr-14 20:29N 40°27' E 027°09'  
Track history (hours):
 
Tides and Currents Weather Stations Pressure Air Temp Water Temp Dewpoint Dewpoint Depression Visibility Wind Speed Wind Dir Waves Ship Positions

Free Maverick

Last reported at 2014-Apr-24 17:24 UTC. Time now 2014-Aug-01 07:51 UTC.
Position N 35°58' W 005°38'.
Warning: this ship's position is months out of date.

Length 153 m; draft 9.3 m.

Type: Cargo ship. MMSI: 636013999.

Date/timePositionNaut miles runAvg speedWind from/ knotsBaromVisibWave heightAir tempDewpointWater temp
2014-Apr-24 17:24N 35°58' W 005°38'8 9.3
2014-Apr-24 16:33N 35°60' W 005°29'8 7.6
2014-Apr-24 15:33N 36°06' W 005°23'1 0.8
2014-Apr-24 14:33N 36°06' W 005°24'0 0.1
2014-Apr-24 13:33N 36°06' W 005°24'0 0.0
2014-Apr-24 12:33N 36°06' W 005°24'0 0.0
2014-Apr-24 11:33N 36°06' W 005°24'0 0.1
2014-Apr-24 10:17N 36°06' W 005°24'0 0.0
2014-Apr-24 09:33N 36°06' W 005°24'0 0.0
2014-Apr-24 08:33N 36°06' W 005°24'0 0.0
2014-Apr-24 07:33N 36°06' W 005°24'0 0.1
2014-Apr-24 06:33N 36°06' W 005°25'0 0.1
2014-Apr-24 05:33N 36°06' W 005°25'0 0.1
2014-Apr-24 04:33N 36°06' W 005°24'0 0.0
2014-Apr-24 03:33N 36°06' W 005°24'0 0.1
2014-Apr-24 02:33N 36°06' W 005°24'2 2.0
2014-Apr-24 01:33N 36°05' W 005°22'5 5.5
2014-Apr-24 00:33N 36°04' W 005°16'4 3.8
2014-Apr-23 23:33N 36°05' W 005°20'6 5.7
2014-Apr-23 22:33N 36°05' W 005°13'8 7.9
2014-Apr-23 21:33N 36°06' W 005°03'  
2014-Apr-20 17:34N 36°44' E 012°54'1312.8
2014-Apr-20 16:33N 36°39' E 013°08'1212.3
2014-Apr-20 15:33N 36°33' E 013°22'1312.4
2014-Apr-20 14:33N 36°27' E 013°36'1212.1
2014-Apr-20 13:33N 36°25' E 013°50'1312.7
2014-Apr-20 12:33N 36°25' E 014°06'1312.7
2014-Apr-20 11:34N 36°24' E 014°22'1312.6
2014-Apr-20 10:33N 36°24' E 014°37'  
2014-Apr-17 23:32N 39°50' E 025°46'  
2014-Apr-14 21:29N 40°27' E 027°09'0 0.0
2014-Apr-14 20:29N 40°27' E 027°09'  

Dump ship's entire track history